Time;durP1;ratioP1;P1;durP2;ratioP2;P2;SDS_P1;SDS_P2;PMS_P1;PMS_P2;Temp;Humidity;BMP_temperature;BMP_pressure;BME280_temperature;BME280_humidity;BME280_pressure;Samples;Min_cycle;Max_cycle;Signal;HPM_P1;HPM_P2
2021/06/10 00:02:01;;;;;;;8.95;7.50;;;;;;;;;;4376919;32;20243;-79
2021/06/10 00:04:27;;;;;;;9.73;7.65;;;;;;;;;;4377114;32;20135;-79
2021/06/10 00:06:52;;;;;;;12.50;9.02;;;;;;;;;;4377470;32;20134;-80
2021/06/10 00:09:17;;;;;;;10.57;8.82;;;;;;;;;;4378406;32;20277;-79
2021/06/10 00:11:42;;;;;;;12.88;9.75;;;;;;;;;;4376764;32;20212;-79
2021/06/10 00:14:07;;;;;;;12.05;10.05;;;;;;;;;;4378810;32;20227;-79
2021/06/10 00:16:32;;;;;;;12.67;8.97;;;;;;;;;;4376578;32;20275;-78
2021/06/10 00:18:57;;;;;;;12.50;9.83;;;;;;;;;;4363383;32;20259;-79
2021/06/10 00:21:23;;;;;;;14.13;9.38;;;;;;;;;;4378501;32;20242;-79
2021/06/10 00:23:48;;;;;;;13.40;10.50;;;;;;;;;;4377669;32;20159;-78
2021/06/10 00:26:13;;;;;;;11.95;9.45;;;;;;;;;;4378177;32;20184;-78
2021/06/10 00:28:39;;;;;;;11.53;9.70;;;;;;;;;;4377218;32;20590;-78
2021/06/10 00:31:04;;;;;;;12.68;9.77;;;;;;;;;;4363091;32;20350;-78
2021/06/10 00:33:29;;;;;;;17.23;11.53;;;;;;;;;;4376957;32;20196;-78
2021/06/10 00:35:54;;;;;;;13.90;10.85;;;;;;;;;;4376296;32;20263;-79
2021/06/10 00:38:20;;;;;;;14.40;10.63;;;;;;;;;;4376416;32;20161;-79
2021/06/10 00:40:45;;;;;;;13.73;11.77;;;;;;;;;;4376741;32;20139;-79
2021/06/10 00:43:10;;;;;;;13.93;12.32;;;;;;;;;;4364198;32;20197;-78
2021/06/10 00:45:35;;;;;;;14.18;10.35;;;;;;;;;;4376207;32;20169;-79
2021/06/10 00:48:01;;;;;;;15.18;12.80;;;;;;;;;;4376254;32;20147;-78
2021/06/10 00:50:28;;;;;;;14.75;12.60;;;;;;;;;;4376127;32;20128;-79
2021/06/10 00:52:54;;;;;;;16.05;13.23;;;;;;;;;;4377501;32;20242;-78
2021/06/10 00:55:19;;;;;;;16.95;13.52;;;;;;;;;;4377788;32;20206;-78
2021/06/10 00:57:44;;;;;;;16.20;12.82;;;;;;;;;;4376168;32;20135;-78
2021/06/10 01:00:11;;;;;;;17.77;15.03;;;;;;;;;;4362339;32;20520;-79
2021/06/10 01:02:36;;;;;;;18.50;14.70;;;;;;;;;;4375770;32;20606;-78
2021/06/10 01:05:01;;;;;;;19.37;14.75;;;;;;;;;;4372927;32;20191;-76
2021/06/10 01:07:45;;;;;;;22.20;17.48;;;;;;;;;;4360948;32;20185;-78
2021/06/10 01:10:24;;;;;;;21.23;17.12;;;;;;;;;;4377951;32;20135;-79
2021/06/10 01:12:49;;;;;;;22.02;17.70;;;;;;;;;;4363789;32;20174;-79
2021/06/10 01:15:15;;;;;;;21.48;16.67;;;;;;;;;;4377192;32;20166;-78
2021/06/10 01:17:47;;;;;;;22.73;17.75;;;;;;;;;;4377473;32;20170;-78
2021/06/10 01:20:15;;;;;;;22.75;16.67;;;;;;;;;;4364762;32;20548;-78
2021/06/10 01:22:58;;;;;;;21.05;16.80;;;;;;;;;;4375948;32;20154;-78
2021/06/10 01:25:29;;;;;;;20.62;17.15;;;;;;;;;;4375752;32;20178;-79
2021/06/10 01:27:57;;;;;;;21.42;17.23;;;;;;;;;;4378998;32;20151;-78
2021/06/10 01:30:25;;;;;;;22.70;17.23;;;;;;;;;;4375710;32;20185;-79
2021/06/10 01:32:52;;;;;;;26.00;18.20;;;;;;;;;;4375560;32;20166;-78
2021/06/10 01:35:19;;;;;;;20.77;17.10;;;;;;;;;;4375623;32;20139;-78
2021/06/10 01:37:45;;;;;;;23.50;18.67;;;;;;;;;;4376455;32;20470;-78
2021/06/10 01:40:11;;;;;;;21.42;19.02;;;;;;;;;;4377450;32;20135;-78
2021/06/10 01:42:41;;;;;;;23.85;17.62;;;;;;;;;;4375915;32;20161;-79
2021/06/10 01:45:08;;;;;;;23.40;18.25;;;;;;;;;;4375851;32;20654;-78
2021/06/10 01:47:33;;;;;;;24.37;19.40;;;;;;;;;;4361924;32;20562;-77
2021/06/10 01:49:59;;;;;;;25.58;19.87;;;;;;;;;;4375104;32;20139;-79
2021/06/10 01:52:24;;;;;;;22.95;19.45;;;;;;;;;;4376782;32;20217;-79
2021/06/10 01:54:50;;;;;;;27.75;20.90;;;;;;;;;;4375141;32;20157;-79
2021/06/10 01:57:15;;;;;;;26.02;20.30;;;;;;;;;;4375716;32;20127;-79
2021/06/10 01:59:41;;;;;;;24.95;19.23;;;;;;;;;;4375356;32;20135;-79
2021/06/10 02:02:06;;;;;;;26.70;20.60;;;;;;;;;;4375651;32;20601;-78
2021/06/10 02:04:32;;;;;;;26.10;21.08;;;;;;;;;;4375249;32;20540;-78
2021/06/10 02:06:59;;;;;;;27.20;20.25;;;;;;;;;;4361446;32;20163;-79
2021/06/10 02:09:24;;;;;;;27.52;19.42;;;;;;;;;;4362691;32;20196;-79
2021/06/10 02:11:50;;;;;;;25.62;20.90;;;;;;;;;;4376833;32;20461;-79
2021/06/10 02:14:19;;;;;;;26.65;20.95;;;;;;;;;;4374987;32;20520;-79
2021/06/10 02:16:45;;;;;;;28.27;21.15;;;;;;;;;;4377044;32;20537;-79
2021/06/10 02:19:10;;;;;;;26.00;19.08;;;;;;;;;;4364559;32;20162;-78
2021/06/10 02:21:36;;;;;;;27.85;20.05;;;;;;;;;;4376578;32;20134;-78
2021/06/10 02:24:01;;;;;;;26.00;21.08;;;;;;;;;;4376570;32;20608;-78
2021/06/10 02:26:26;;;;;;;27.97;21.63;;;;;;;;;;4361449;32;20194;-79
2021/06/10 02:28:51;;;;;;;26.20;19.23;;;;;;;;;;4361713;32;20578;-79
2021/06/10 02:31:16;;;;;;;26.45;20.70;;;;;;;;;;4376278;32;20604;-79
2021/06/10 02:33:43;;;;;;;25.90;20.70;;;;;;;;;;4376833;32;20323;-78
2021/06/10 02:36:09;;;;;;;26.48;21.08;;;;;;;;;;4374372;32;20260;-78
2021/06/10 02:38:36;;;;;;;30.15;22.05;;;;;;;;;;4375263;32;20193;-78
2021/06/10 02:41:03;;;;;;;27.08;21.45;;;;;;;;;;4376616;32;20177;-79
2021/06/10 02:43:30;;;;;;;29.08;21.58;;;;;;;;;;4377695;32;20161;-78
2021/06/10 02:45:55;;;;;;;27.15;19.90;;;;;;;;;;4380303;32;20556;-78
2021/06/10 02:48:20;;;;;;;25.52;20.60;;;;;;;;;;4375737;32;20131;-78
2021/06/10 02:50:47;;;;;;;26.25;19.73;;;;;;;;;;4363079;32;20167;-79
2021/06/10 02:53:15;;;;;;;24.52;19.27;;;;;;;;;;4376275;32;20151;-79
2021/06/10 02:55:41;;;;;;;26.62;18.87;;;;;;;;;;4361027;32;20163;-79
2021/06/10 02:58:06;;;;;;;28.15;22.10;;;;;;;;;;4375157;32;20621;-79
2021/06/10 03:00:32;;;;;;;28.85;20.80;;;;;;;;;;4361147;32;20241;-79
2021/06/10 03:02:59;;;;;;;28.58;21.17;;;;;;;;;;4376176;32;20185;-78
2021/06/10 03:05:25;;;;;;;25.45;19.20;;;;;;;;;;4362545;32;20219;-79
2021/06/10 03:07:51;;;;;;;26.17;20.23;;;;;;;;;;4374784;32;20201;-79
2021/06/10 03:10:19;;;;;;;27.05;19.70;;;;;;;;;;4374965;32;20139;-79
2021/06/10 03:12:44;;;;;;;28.60;21.42;;;;;;;;;;4362352;32;20163;-79
2021/06/10 03:15:10;;;;;;;23.70;18.60;;;;;;;;;;4375504;32;20165;-79
2021/06/10 03:17:36;;;;;;;23.98;18.67;;;;;;;;;;4374973;32;20143;-79
2021/06/10 03:20:06;;;;;;;29.65;18.37;;;;;;;;;;4360908;32;20262;-79
2021/06/10 03:22:32;;;;;;;22.98;15.95;;;;;;;;;;4374330;32;20155;-79
2021/06/10 03:24:57;;;;;;;21.83;15.95;;;;;;;;;;4374937;32;20504;-78
2021/06/10 03:27:22;;;;;;;20.83;15.23;;;;;;;;;;4374216;32;20546;-79
2021/06/10 03:29:48;;;;;;;20.35;15.73;;;;;;;;;;4375542;32;20131;-79
2021/06/10 03:32:13;;;;;;;22.23;15.77;;;;;;;;;;4374777;32;20517;-79
2021/06/10 03:34:38;;;;;;;22.17;16.45;;;;;;;;;;4374575;32;20444;-79
2021/06/10 03:37:04;;;;;;;22.13;15.30;;;;;;;;;;4375985;32;20185;-79
2021/06/10 03:39:30;;;;;;;19.98;14.00;;;;;;;;;;4375506;32;20162;-78
2021/06/10 03:41:55;;;;;;;18.90;13.20;;;;;;;;;;4372317;32;20578;-78
2021/06/10 03:44:20;;;;;;;20.45;14.50;;;;;;;;;;4376357;32;20155;-79
2021/06/10 03:46:46;;;;;;;23.60;14.52;;;;;;;;;;4376953;32;20436;-78
2021/06/10 03:49:11;;;;;;;17.50;12.93;;;;;;;;;;4378734;32;20466;-78
2021/06/10 03:51:37;;;;;;;15.05;10.88;;;;;;;;;;4364183;32;20672;-79
2021/06/10 03:54:03;;;;;;;18.62;11.18;;;;;;;;;;4381712;32;20161;-79
2021/06/10 03:56:29;;;;;;;17.50;13.35;;;;;;;;;;4361563;32;20500;-78
2021/06/10 03:58:54;;;;;;;17.30;13.20;;;;;;;;;;4374855;32;20868;-79
2021/06/10 04:01:19;;;;;;;18.97;13.00;;;;;;;;;;4374523;32;20131;-78
2021/06/10 04:03:44;;;;;;;17.58;13.07;;;;;;;;;;4376528;32;20239;-78
2021/06/10 04:06:11;;;;;;;17.48;12.30;;;;;;;;;;4376483;32;20240;-79
2021/06/10 04:08:37;;;;;;;14.00;10.65;;;;;;;;;;4376127;32;20196;-79
2021/06/10 04:11:02;;;;;;;14.05;10.88;;;;;;;;;;4373989;32;20253;-79
2021/06/10 04:13:27;;;;;;;12.33;10.33;;;;;;;;;;4372904;32;20320;-79
2021/06/10 04:15:52;;;;;;;13.45;9.85;;;;;;;;;;4375191;32;20287;-79
2021/06/10 04:18:18;;;;;;;13.00;8.07;;;;;;;;;;4373791;32;20176;-78
2021/06/10 04:20:45;;;;;;;13.23;8.50;;;;;;;;;;4361018;32;20210;-80
2021/06/10 04:23:10;;;;;;;10.52;7.10;;;;;;;;;;4374513;32;20671;-81
2021/06/10 04:25:35;;;;;;;11.75;7.37;;;;;;;;;;4361855;32;20216;-78
2021/06/10 04:28:00;;;;;;;7.97;6.28;;;;;;;;;;4379112;32;20173;-78
2021/06/10 04:30:26;;;;;;;11.80;6.40;;;;;;;;;;4383365;32;20279;-78
2021/06/10 04:32:51;;;;;;;11.07;7.32;;;;;;;;;;4360819;32;20310;-78
2021/06/10 04:35:16;;;;;;;12.82;8.48;;;;;;;;;;4374916;32;20211;-78
2021/06/10 04:37:41;;;;;;;10.50;7.90;;;;;;;;;;4373382;32;20159;-79
2021/06/10 04:40:07;;;;;;;10.93;7.82;;;;;;;;;;4374030;32;20487;-78
2021/06/10 04:42:32;;;;;;;12.32;7.68;;;;;;;;;;4359769;32;20197;-79
2021/06/10 04:44:57;;;;;;;12.27;7.22;;;;;;;;;;4374870;32;20158;-78
2021/06/10 04:47:22;;;;;;;9.32;7.15;;;;;;;;;;4374788;32;20190;-79
2021/06/10 04:49:48;;;;;;;10.95;7.05;;;;;;;;;;4373428;32;20185;-80
2021/06/10 04:52:14;;;;;;;11.20;5.85;;;;;;;;;;4373918;32;20385;-78
2021/06/10 04:54:39;;;;;;;8.70;5.72;;;;;;;;;;4374330;32;20150;-79
2021/06/10 04:57:05;;;;;;;9.05;5.82;;;;;;;;;;4360370;32;20201;-77
2021/06/10 04:59:30;;;;;;;7.87;5.15;;;;;;;;;;4373973;32;20247;-76
2021/06/10 05:01:56;;;;;;;10.30;5.65;;;;;;;;;;4374305;32;20155;-76
2021/06/10 05:04:21;;;;;;;10.80;5.07;;;;;;;;;;4373692;32;20181;-78
2021/06/10 05:06:46;;;;;;;7.95;5.15;;;;;;;;;;4359418;32;20242;-77
2021/06/10 05:09:11;;;;;;;6.55;4.68;;;;;;;;;;4373027;32;20230;-78
2021/06/10 05:11:37;;;;;;;7.87;4.93;;;;;;;;;;4374536;32;20174;-78
2021/06/10 05:14:02;;;;;;;7.25;5.22;;;;;;;;;;4365421;32;20702;-78
2021/06/10 05:16:27;;;;;;;9.63;5.32;;;;;;;;;;4373057;32;20277;-78
2021/06/10 05:18:52;;;;;;;7.00;4.93;;;;;;;;;;4372978;32;20187;-79
2021/06/10 05:21:18;;;;;;;9.63;6.78;;;;;;;;;;4373609;32;20190;-78
2021/06/10 05:23:43;;;;;;;9.05;5.12;;;;;;;;;;4373020;32;20216;-78
2021/06/10 05:26:08;;;;;;;6.28;4.80;;;;;;;;;;4372973;32;20269;-80
2021/06/10 05:28:34;;;;;;;9.15;4.50;;;;;;;;;;4382431;32;20252;-79
2021/06/10 05:31:00;;;;;;;9.90;4.70;;;;;;;;;;4374513;32;20197;-77
2021/06/10 05:33:25;;;;;;;9.50;5.28;;;;;;;;;;4360910;32;20205;-80
2021/06/10 05:35:51;;;;;;;6.45;4.57;;;;;;;;;;4373039;32;20908;-80
2021/06/10 05:38:16;;;;;;;7.07;5.32;;;;;;;;;;4372842;32;20202;-79
2021/06/10 05:40:41;;;;;;;7.45;4.70;;;;;;;;;;4372855;32;20575;-79
2021/06/10 05:43:06;;;;;;;11.55;5.28;;;;;;;;;;4374559;32;20254;-79
2021/06/10 05:45:32;;;;;;;6.18;4.95;;;;;;;;;;4374272;32;20235;-79
2021/06/10 05:47:57;;;;;;;8.90;4.93;;;;;;;;;;4373456;32;20193;-79
2021/06/10 05:50:22;;;;;;;11.75;5.60;;;;;;;;;;4373491;32;20175;-78
2021/06/10 05:52:48;;;;;;;10.25;5.53;;;;;;;;;;4359846;32;20181;-79
2021/06/10 05:55:13;;;;;;;11.07;5.50;;;;;;;;;;4373089;32;20542;-79
2021/06/10 05:57:38;;;;;;;14.98;5.78;;;;;;;;;;4373922;32;20178;-80
2021/06/10 06:00:05;;;;;;;8.80;5.20;;;;;;;;;;4374104;32;20281;-78
2021/06/10 06:02:30;;;;;;;8.07;5.32;;;;;;;;;;4373384;32;20158;-79
2021/06/10 06:04:55;;;;;;;10.80;5.13;;;;;;;;;;4367507;32;20163;-80
2021/06/10 06:07:20;;;;;;;7.30;5.00;;;;;;;;;;4372867;32;20639;-80
2021/06/10 06:09:46;;;;;;;9.60;5.55;;;;;;;;;;4374383;32;20239;-79
2021/06/10 06:12:12;;;;;;;11.80;5.95;;;;;;;;;;4362753;32;20185;-79
2021/06/10 06:14:38;;;;;;;11.38;5.75;;;;;;;;;;4380254;32;20155;-78
2021/06/10 06:17:05;;;;;;;9.13;4.65;;;;;;;;;;4366916;32;20206;-78
2021/06/10 06:19:31;;;;;;;6.82;4.53;;;;;;;;;;4378342;32;20177;-79
2021/06/10 06:21:56;;;;;;;8.90;5.03;;;;;;;;;;4359990;32;20198;-77
2021/06/10 06:24:21;;;;;;;11.85;5.93;;;;;;;;;;4371956;32;20193;-79
2021/06/10 06:26:46;;;;;;;7.40;5.53;;;;;;;;;;4372115;32;20143;-78
2021/06/10 06:29:12;;;;;;;8.13;5.32;;;;;;;;;;4374551;32;20131;-79
2021/06/10 06:31:37;;;;;;;9.85;5.15;;;;;;;;;;4373357;32;20374;-78
2021/06/10 06:34:03;;;;;;;8.68;5.93;;;;;;;;;;4355451;32;20215;-79
2021/06/10 06:36:28;;;;;;;14.68;6.37;;;;;;;;;;4370898;32;20670;-78
2021/06/10 06:38:54;;;;;;;8.75;5.35;;;;;;;;;;4372598;32;20216;-78
2021/06/10 06:41:20;;;;;;;7.45;5.22;;;;;;;;;;4371356;32;20939;-77
2021/06/10 06:43:45;;;;;;;9.60;4.97;;;;;;;;;;4373879;32;20147;-78
2021/06/10 06:46:10;;;;;;;8.70;5.30;;;;;;;;;;4371975;32;20213;-79
2021/06/10 06:48:36;;;;;;;10.07;5.40;;;;;;;;;;4371438;32;20155;-78
2021/06/10 06:51:02;;;;;;;8.68;5.30;;;;;;;;;;4351514;32;20224;-78
2021/06/10 06:53:29;;;;;;;8.43;5.03;;;;;;;;;;4372873;32;20226;-77
2021/06/10 06:55:55;;;;;;;13.65;5.82;;;;;;;;;;4371606;32;20623;-77
2021/06/10 06:58:20;;;;;;;8.55;5.95;;;;;;;;;;4374117;32;20155;-78
2021/06/10 07:00:46;;;;;;;8.23;5.45;;;;;;;;;;4373441;32;20177;-79
2021/06/10 07:03:11;;;;;;;10.43;5.32;;;;;;;;;;4372695;32;20746;-79
2021/06/10 07:05:36;;;;;;;7.70;5.32;;;;;;;;;;4359410;32;20167;-79
2021/06/10 07:08:01;;;;;;;6.75;4.28;;;;;;;;;;4373673;32;20302;-79
2021/06/10 07:10:26;;;;;;;8.07;4.57;;;;;;;;;;4371921;32;20250;-77
2021/06/10 07:12:51;;;;;;;9.88;4.87;;;;;;;;;;4373235;32;20749;-76
2021/06/10 07:15:17;;;;;;;8.40;4.80;;;;;;;;;;4376750;32;20152;-78
2021/06/10 07:17:42;;;;;;;7.60;4.00;;;;;;;;;;4365192;32;20700;-78
2021/06/10 07:20:07;;;;;;;7.60;4.25;;;;;;;;;;4378429;32;20143;-78
2021/06/10 07:22:36;;;;;;;6.12;3.45;;;;;;;;;;4374342;32;20220;-80
2021/06/10 07:25:02;;;;;;;9.38;3.37;;;;;;;;;;4376069;32;20638;-79
2021/06/10 07:27:27;;;;;;;10.05;4.00;;;;;;;;;;4373836;32;20158;-80
2021/06/10 07:29:54;;;;;;;5.55;2.87;;;;;;;;;;4359642;32;20247;-79
2021/06/10 07:32:19;;;;;;;4.75;3.03;;;;;;;;;;4374272;32;20246;-77
2021/06/10 07:34:44;;;;;;;5.80;2.87;;;;;;;;;;4374332;32;20147;-79
2021/06/10 07:37:09;;;;;;;5.05;2.60;;;;;;;;;;4358448;32;20524;-78
2021/06/10 07:39:35;;;;;;;5.07;2.80;;;;;;;;;;4371607;32;20151;-79
2021/06/10 07:42:00;;;;;;;5.95;2.62;;;;;;;;;;4373742;32;20151;-78
2021/06/10 07:44:25;;;;;;;8.82;3.05;;;;;;;;;;4362195;32;20498;-79
2021/06/10 07:46:51;;;;;;;4.82;2.80;;;;;;;;;;4374739;32;20162;-80
2021/06/10 07:49:16;;;;;;;3.62;2.20;;;;;;;;;;4370979;32;20169;-79
2021/06/10 07:51:41;;;;;;;3.37;1.92;;;;;;;;;;4373123;32;20151;-80
2021/06/10 07:54:06;;;;;;;4.50;2.75;;;;;;;;;;4359879;32;20568;-80
2021/06/10 07:56:32;;;;;;;5.32;3.17;;;;;;;;;;4372553;32;20278;-80
2021/06/10 07:58:57;;;;;;;5.43;2.10;;;;;;;;;;4372987;32;20154;-79
2021/06/10 08:01:22;;;;;;;5.43;2.33;;;;;;;;;;4380282;32;20230;-81
2021/06/10 08:03:47;;;;;;;6.32;2.60;;;;;;;;;;4374958;32;20163;-79
2021/06/10 08:06:12;;;;;;;4.82;2.17;;;;;;;;;;4361484;32;20296;-79
2021/06/10 08:08:38;;;;;;;4.97;2.10;;;;;;;;;;4359448;32;20198;-80
2021/06/10 08:11:06;;;;;;;5.12;1.83;;;;;;;;;;4374175;32;20220;-80
2021/06/10 08:13:32;;;;;;;6.20;1.85;;;;;;;;;;4373301;32;20155;-80
2021/06/10 08:15:57;;;;;;;4.62;1.77;;;;;;;;;;4373245;32;20151;-78
2021/06/10 08:18:22;;;;;;;6.28;2.40;;;;;;;;;;4372614;32;20155;-79
2021/06/10 08:20:47;;;;;;;2.55;1.62;;;;;;;;;;4372502;32;20190;-78
2021/06/10 08:23:13;;;;;;;2.20;1.75;;;;;;;;;;4352665;32;20175;-80
2021/06/10 08:25:43;;;;;;;5.25;1.48;;;;;;;;;;4372955;32;20252;-78
2021/06/10 08:28:09;;;;;;;4.15;1.50;;;;;;;;;;4373625;32;20832;-77
2021/06/10 08:30:34;;;;;;;7.57;3.00;;;;;;;;;;4372947;32;20166;-76
2021/06/10 08:32:59;;;;;;;6.37;2.92;;;;;;;;;;4373008;32;20241;-78
2021/06/10 08:35:24;;;;;;;2.83;1.40;;;;;;;;;;4372528;32;20158;-77
2021/06/10 08:37:50;;;;;;;3.95;1.60;;;;;;;;;;4372278;32;20181;-77
2021/06/10 08:40:15;;;;;;;3.35;1.37;;;;;;;;;;4373335;32;20151;-79
2021/06/10 08:42:41;;;;;;;4.78;1.60;;;;;;;;;;4357115;32;20167;-80
2021/06/10 08:45:10;;;;;;;2.58;1.35;;;;;;;;;;4373539;32;20167;-77
2021/06/10 08:47:37;;;;;;;3.80;1.60;;;;;;;;;;4374300;32;20185;-78
2021/06/10 08:50:03;;;;;;;2.67;1.80;;;;;;;;;;4374569;32;20151;-80
2021/06/10 08:52:29;;;;;;;3.70;1.92;;;;;;;;;;4373454;32;20143;-82
2021/06/10 08:54:54;;;;;;;2.45;1.40;;;;;;;;;;4375380;32;20185;-80
2021/06/10 08:57:19;;;;;;;4.20;1.60;;;;;;;;;;4373755;32;20166;-80
2021/06/10 08:59:44;;;;;;;4.03;1.70;;;;;;;;;;4373213;32;20143;-79
2021/06/10 09:02:10;;;;;;;5.27;1.97;;;;;;;;;;4359766;32;20171;-80
2021/06/10 09:04:36;;;;;;;3.78;1.92;;;;;;;;;;4372824;32;20278;-80
2021/06/10 09:07:03;;;;;;;2.58;1.75;;;;;;;;;;4373093;32;20222;-79
2021/06/10 09:09:35;;;;;;;3.67;1.75;;;;;;;;;;4373464;32;20166;-79
2021/06/10 09:12:05;;;;;;;3.33;2.10;;;;;;;;;;4373731;32;20178;-81
2021/06/10 09:14:31;;;;;;;13.38;3.00;;;;;;;;;;4358999;32;20201;-82
2021/06/10 09:16:56;;;;;;;6.43;2.92;;;;;;;;;;4373996;32;20154;-79
2021/06/10 09:19:21;;;;;;;6.45;3.60;;;;;;;;;;4372344;32;20154;-80
2021/06/10 09:21:47;;;;;;;5.67;2.80;;;;;;;;;;4377621;32;20406;-79
2021/06/10 09:24:27;;;;;;;3.30;2.15;;;;;;;;;;4372110;32;20654;-80
2021/06/10 09:26:56;;;;;;;6.35;2.80;;;;;;;;;;4372855;32;20172;-80
2021/06/10 09:29:33;;;;;;;5.12;2.40;;;;;;;;;;4373030;32;20171;-79
2021/06/10 09:31:58;;;;;;;6.22;2.53;;;;;;;;;;4377229;32;20249;-80
2021/06/10 09:34:28;;;;;;;9.43;3.13;;;;;;;;;;4372782;32;20194;-80
2021/06/10 09:36:53;;;;;;;6.50;3.10;;;;;;;;;;4370723;32;20298;-79
2021/06/10 09:39:23;;;;;;;4.25;2.60;;;;;;;;;;4372420;32;20594;-80
2021/06/10 09:42:02;;;;;;;4.82;2.08;;;;;;;;;;4359043;32;20297;-79
2021/06/10 09:44:36;;;;;;;5.25;2.75;;;;;;;;;;4372690;32;20151;-79
2021/06/10 09:47:02;;;;;;;8.98;2.55;;;;;;;;;;4372110;32;20701;-80
2021/06/10 09:49:27;;;;;;;7.07;2.47;;;;;;;;;;4373574;32;20197;-79
2021/06/10 09:51:53;;;;;;;8.23;2.83;;;;;;;;;;4372063;32;20120;-79
2021/06/10 09:54:37;;;;;;;4.75;2.80;;;;;;;;;;4373577;32;20228;-80
2021/06/10 09:57:02;;;;;;;5.05;2.90;;;;;;;;;;4358922;32;20960;-80
2021/06/10 10:00:00;;;;;;;6.60;3.58;;;;;;;;;;4380173;32;20229;-80
2021/06/10 10:02:26;;;;;;;4.28;3.00;;;;;;;;;;4352095;32;20209;-80
2021/06/10 10:05:05;;;;;;;4.70;2.90;;;;;;;;;;4373807;32;20183;-80
2021/06/10 10:07:31;;;;;;;6.57;2.53;;;;;;;;;;4373467;32;20146;-81
2021/06/10 10:09:57;;;;;;;6.45;2.37;;;;;;;;;;4372899;32;20190;-78
2021/06/10 10:12:23;;;;;;;3.97;1.90;;;;;;;;;;4359082;32;20174;-80
2021/06/10 10:14:49;;;;;;;2.37;1.77;;;;;;;;;;4352456;32;20233;-80
2021/06/10 10:17:14;;;;;;;5.70;2.40;;;;;;;;;;4374379;32;20643;-80
2021/06/10 10:19:39;;;;;;;6.45;2.37;;;;;;;;;;4373773;32;20163;-79
2021/06/10 10:22:10;;;;;;;3.85;1.77;;;;;;;;;;4377725;32;20167;-79
2021/06/10 10:24:35;;;;;;;3.90;2.37;;;;;;;;;;4364255;32;20151;-79
2021/06/10 10:27:01;;;;;;;7.35;2.72;;;;;;;;;;4372876;32;20169;-79
2021/06/10 10:29:26;;;;;;;6.13;1.90;;;;;;;;;;4372359;32;20162;-79
2021/06/10 10:31:53;;;;;;;5.22;1.90;;;;;;;;;;4372349;32;20326;-79
2021/06/10 10:34:22;;;;;;;4.65;2.12;;;;;;;;;;4372625;32;21128;-81
2021/06/10 10:36:47;;;;;;;4.05;1.90;;;;;;;;;;4372584;32;20174;-80
2021/06/10 10:39:12;;;;;;;4.93;1.80;;;;;;;;;;4372487;32;20147;-79
2021/06/10 10:41:50;;;;;;;4.13;1.80;;;;;;;;;;4372206;32;20139;-78
2021/06/10 10:44:23;;;;;;;3.87;1.80;;;;;;;;;;4374145;32;20243;-79
2021/06/10 10:47:09;;;;;;;2.30;1.60;;;;;;;;;;4370996;32;20536;-79
2021/06/10 10:49:44;;;;;;;6.75;3.22;;;;;;;;;;4376686;32;20205;-78
2021/06/10 10:52:16;;;;;;;4.10;2.15;;;;;;;;;;4361653;32;20174;-79
2021/06/10 10:54:42;;;;;;;4.28;2.17;;;;;;;;;;4362438;32;20163;-80
2021/06/10 10:57:27;;;;;;;4.70;2.40;;;;;;;;;;4375729;32;20702;-80
2021/06/10 10:59:52;;;;;;;4.25;2.35;;;;;;;;;;4361544;32;20209;-78
2021/06/10 11:02:18;;;;;;;3.10;2.67;;;;;;;;;;4362146;32;20516;-79
2021/06/10 11:04:48;;;;;;;5.62;2.37;;;;;;;;;;4376526;32;20182;-80
2021/06/10 11:07:32;;;;;;;5.78;2.60;;;;;;;;;;4383617;32;20163;-79
2021/06/10 11:09:57;;;;;;;5.53;2.40;;;;;;;;;;4387480;32;20201;-79
2021/06/10 11:12:40;;;;;;;8.47;3.33;;;;;;;;;;4375325;32;20221;-78
2021/06/10 11:15:06;;;;;;;6.12;3.22;;;;;;;;;;4376465;32;20743;-80
2021/06/10 11:17:41;;;;;;;6.78;4.15;;;;;;;;;;4374685;32;20282;-79
2021/06/10 11:20:07;;;;;;;6.47;2.20;;;;;;;;;;4372163;32;20174;-80
2021/06/10 11:22:47;;;;;;;3.45;1.80;;;;;;;;;;4360572;32;20209;-80
2021/06/10 11:25:16;;;;;;;4.95;2.30;;;;;;;;;;4384570;32;20285;-79
2021/06/10 11:27:42;;;;;;;7.30;3.22;;;;;;;;;;4374892;32;20217;-79
2021/06/10 11:30:11;;;;;;;4.90;2.90;;;;;;;;;;4376389;32;20944;-77
2021/06/10 11:32:55;;;;;;;5.78;3.80;;;;;;;;;;4369969;32;20223;-79
2021/06/10 11:35:28;;;;;;;5.25;3.20;;;;;;;;;;4372297;32;20584;-79
2021/06/10 11:37:54;;;;;;;16.95;3.45;;;;;;;;;;4374947;32;20158;-78
2021/06/10 11:40:19;;;;;;;6.18;2.40;;;;;;;;;;4374549;32;20214;-79
2021/06/10 11:42:44;;;;;;;7.30;3.67;;;;;;;;;;4375242;32;20174;-79
2021/06/10 11:45:10;;;;;;;5.45;3.20;;;;;;;;;;4377161;32;20146;-79
2021/06/10 11:47:38;;;;;;;6.93;4.22;;;;;;;;;;4376584;32;20170;-79
2021/06/10 11:50:21;;;;;;;9.10;3.65;;;;;;;;;;4361484;32;20200;-78
2021/06/10 11:52:50;;;;;;;4.30;3.35;;;;;;;;;;4372106;32;20166;-79
2021/06/10 11:55:15;;;;;;;8.50;4.00;;;;;;;;;;4370794;32;20580;-79
2021/06/10 11:57:40;;;;;;;5.12;3.08;;;;;;;;;;4356788;32;20262;-79
2021/06/10 12:00:09;;;;;;;6.80;4.20;;;;;;;;;;4378378;32;20143;-80
2021/06/10 12:02:36;;;;;;;6.60;4.50;;;;;;;;;;4371336;32;20341;-79
2021/06/10 12:05:06;;;;;;;6.15;4.40;;;;;;;;;;4365640;32;20236;-79
2021/06/10 12:07:31;;;;;;;6.45;3.95;;;;;;;;;;4390126;32;20151;-79
2021/06/10 12:09:57;;;;;;;6.95;4.12;;;;;;;;;;4365306;32;20179;-80
2021/06/10 12:12:31;;;;;;;9.10;4.50;;;;;;;;;;4380550;32;20158;-76
2021/06/10 12:14:56;;;;;;;9.90;4.50;;;;;;;;;;4378236;32;20205;-79
2021/06/10 12:17:22;;;;;;;8.87;4.47;;;;;;;;;;4361391;32;20175;-79
2021/06/10 12:19:47;;;;;;;5.87;3.53;;;;;;;;;;4360667;32;20791;-79
2021/06/10 12:22:12;;;;;;;10.48;4.82;;;;;;;;;;4373511;32;20297;-78
2021/06/10 12:24:43;;;;;;;13.37;4.40;;;;;;;;;;4377041;32;20174;-79
2021/06/10 12:27:13;;;;;;;8.07;4.00;;;;;;;;;;4373524;32;20274;-79
2021/06/10 12:29:47;;;;;;;8.68;3.83;;;;;;;;;;4373844;32;20219;-80
2021/06/10 12:32:31;;;;;;;4.00;2.58;;;;;;;;;;4360365;32;20797;-78
2021/06/10 12:34:58;;;;;;;4.68;2.95;;;;;;;;;;4372055;32;20159;-78
2021/06/10 12:37:23;;;;;;;4.55;3.28;;;;;;;;;;4373497;32;20189;-79
2021/06/10 12:39:49;;;;;;;4.87;2.97;;;;;;;;;;4359794;32;20655;-79
2021/06/10 12:42:14;;;;;;;5.50;3.07;;;;;;;;;;4373461;32;20276;-79
2021/06/10 12:44:39;;;;;;;4.20;3.70;;;;;;;;;;4359330;32;20377;-80
2021/06/10 12:47:08;;;;;;;5.53;3.40;;;;;;;;;;4360106;32;20232;-79
2021/06/10 12:49:47;;;;;;;9.15;3.17;;;;;;;;;;4373051;32;20334;-78
2021/06/10 12:52:20;;;;;;;5.65;3.85;;;;;;;;;;4360315;32;20229;-79
2021/06/10 12:54:50;;;;;;;7.55;3.47;;;;;;;;;;4372899;32;20178;-79
2021/06/10 12:57:22;;;;;;;8.65;3.37;;;;;;;;;;4372824;32;20222;-79
2021/06/10 12:59:57;;;;;;;8.43;3.50;;;;;;;;;;4372597;32;20320;-79
2021/06/10 13:02:23;;;;;;;4.45;3.20;;;;;;;;;;4374876;32;20158;-79
2021/06/10 13:04:50;;;;;;;4.97;3.40;;;;;;;;;;4375117;32;20174;-80
2021/06/10 13:07:58;;;;;;;4.20;3.12;;;;;;;;;;4375118;32;20266;-79
2021/06/10 13:10:40;;;;;;;8.57;3.75;;;;;;;;;;4331696;33;20171;-78
2021/06/10 13:13:06;;;;;;;6.12;3.75;;;;;;;;;;4321282;33;20179;-79
2021/06/10 13:15:32;;;;;;;5.60;3.58;;;;;;;;;;4360366;32;20810;-80
2021/06/10 13:18:07;;;;;;;6.07;3.30;;;;;;;;;;4373294;32;20147;-79
2021/06/10 13:20:45;;;;;;;8.27;2.97;;;;;;;;;;4373500;32;20150;-78
2021/06/10 13:23:17;;;;;;;4.57;3.03;;;;;;;;;;4359257;32;20191;-79
2021/06/10 13:25:44;;;;;;;5.55;3.67;;;;;;;;;;4365096;32;20330;-78
2021/06/10 13:28:13;;;;;;;8.57;3.47;;;;;;;;;;4372653;32;20186;-79
2021/06/10 13:30:39;;;;;;;6.50;3.30;;;;;;;;;;4359914;32;20201;-78
2021/06/10 13:33:04;;;;;;;5.03;2.80;;;;;;;;;;4372058;32;20198;-77
2021/06/10 13:35:37;;;;;;;4.37;2.20;;;;;;;;;;4371993;32;20201;-78
2021/06/10 13:38:02;;;;;;;4.30;2.53;;;;;;;;;;4373240;32;20182;-79
2021/06/10 13:40:28;;;;;;;4.80;3.12;;;;;;;;;;4359126;32;20248;-79
2021/06/10 13:42:53;;;;;;;5.27;3.10;;;;;;;;;;4373538;32;20142;-79
2021/06/10 13:45:18;;;;;;;4.72;3.00;;;;;;;;;;4372243;32;20170;-77
2021/06/10 13:47:43;;;;;;;4.07;2.90;;;;;;;;;;4355732;32;20206;-78
2021/06/10 13:50:09;;;;;;;4.62;2.47;;;;;;;;;;4372204;32;20978;-78
2021/06/10 13:52:34;;;;;;;4.57;2.40;;;;;;;;;;4372565;32;20217;-79
2021/06/10 13:54:59;;;;;;;8.50;2.95;;;;;;;;;;4373786;32;20190;-79
2021/06/10 13:57:24;;;;;;;10.70;2.95;;;;;;;;;;4359303;32;20171;-78
2021/06/10 13:59:49;;;;;;;3.60;2.42;;;;;;;;;;4371858;32;20634;-79
2021/06/10 14:02:20;;;;;;;6.37;2.40;;;;;;;;;;4375823;32;20207;-78
2021/06/10 14:04:47;;;;;;;5.90;2.85;;;;;;;;;;4372997;32;20193;-79
2021/06/10 14:07:12;;;;;;;6.05;2.80;;;;;;;;;;4362409;32;20166;-77
2021/06/10 14:09:38;;;;;;;3.80;2.10;;;;;;;;;;4358480;32;20232;-79
2021/06/10 14:12:03;;;;;;;3.80;2.10;;;;;;;;;;4357595;32;20186;-80
2021/06/10 14:14:28;;;;;;;3.45;2.30;;;;;;;;;;4371310;32;20178;-79
2021/06/10 14:16:53;;;;;;;2.37;1.60;;;;;;;;;;4358927;32;20194;-78
2021/06/10 14:19:19;;;;;;;3.50;2.20;;;;;;;;;;4374021;32;20209;-78
2021/06/10 14:21:45;;;;;;;3.65;1.95;;;;;;;;;;4372386;32;20190;-79
2021/06/10 14:24:10;;;;;;;4.70;2.30;;;;;;;;;;4359298;32;20306;-78
2021/06/10 14:26:35;;;;;;;3.07;2.20;;;;;;;;;;4372545;32;20858;-77
2021/06/10 14:34:21;;;;;;;3.25;1.70;;;;;;;;;;4371835;32;20139;-78
2021/06/10 14:36:46;;;;;;;2.97;1.58;;;;;;;;;;4370945;32;20143;-78
2021/06/10 14:39:12;;;;;;;3.40;1.67;;;;;;;;;;4372366;32;20181;-79